Elkhorn, West Virginia
Current Conditions -  °F | °C
As of 11:52 PM on Saturday 22 Nov 2014 (Local Time) from KBLF Reporting Station
Clear Clear  
Wind Chill: 43°   Ceiling: Unl
Heat Index: 43°   Visibility: 10mi
Dew Point: 16°   Wind: 3mph
Humidity: 34%   Direction: 150°SSE
Pressure: 30.22"   Gusts: NA
Location:  37.39°N, 81.41°W
Report Text: KBLF 230452Z AUTO 15003KT 10SM CLR 06/M09 A3022 RMK AO2 SLP226 T00611089 401561039
Loading
Personal Weather Stations






























Interactive Weather Map New forecast layout! Learn more

10-Day Weather Forecast

Advertisements
Track Severe Weather on mobile